Time;durP1;ratioP1;P1;durP2;ratioP2;P2;SDS_P1;SDS_P2;PMS_P1;PMS_P2;Temp;Humidity;BMP_temperature;BMP_pressure;BME280_temperature;BME280_humidity;BME280_pressure;Samples;Min_cycle;Max_cycle;Signal;HPM_P1;HPM_P2
2023/12/16 14:47:51;;;;;;;;;;;0.80;99.90;;;;;;5102181;27;2134956;-94
2023/12/16 14:50:16;;;;;;;;;;;0.80;99.90;;;;;;5156491;27;19918;-95
2023/12/16 14:52:42;;;;;;;;;;;0.80;99.90;;;;;;5156224;27;19907;-94
2023/12/16 14:55:07;;;;;;;;;;;0.90;99.90;;;;;;5156065;27;19914;-95
2023/12/16 14:57:35;;;;;;;;;;;1.00;99.90;;;;;;5156235;27;20001;-95
2023/12/16 15:00:00;;;;;;;;;;;1.10;99.90;;;;;;5156088;27;19907;-94
2023/12/16 15:02:26;;;;;;;;;;;1.20;99.90;;;;;;5156040;27;19913;-94
2023/12/16 15:04:52;;;;;;;;;;;1.20;99.90;;;;;;5155790;27;19907;-95
2023/12/16 15:07:22;;;;;;;;;;;1.30;99.90;;;;;;5156150;27;19915;-95
2023/12/16 15:09:48;;;;;;;;;;;1.30;99.90;;;;;;5156064;27;19994;-96
2023/12/16 15:12:14;;;;;;;;;;;1.40;99.90;;;;;;5156588;27;19907;-94
2023/12/16 15:14:39;;;;;;;;;;;1.40;99.90;;;;;;5155896;27;19917;-94
2023/12/16 15:17:05;;;;;;;;;;;1.40;99.90;;;;;;5155916;27;19994;-94
2023/12/16 15:19:32;;;;;;;;;;;1.40;99.90;;;;;;5156386;27;19907;-95
2023/12/16 15:21:58;;;;;;;;;;;1.40;99.90;;;;;;5155514;27;20283;-95
2023/12/16 15:24:24;;;;;;;;;;;1.50;99.90;;;;;;5155700;27;19907;-96
2023/12/16 16:56:07;;;;;;;;;;;0.30;99.90;;;;;;5099436;27;2244674;-94
2023/12/16 16:58:33;;;;;;;;;;;0.20;99.90;;;;;;5158332;27;19917;-95
2023/12/16 19:36:17;;;;;;;;;;;0.50;99.90;;;;;;5113289;27;19912;-93
2023/12/16 20:16:27;;;;;;;;;;;0.80;99.90;;;;;;5077237;27;2266673;-96
2023/12/16 20:18:53;;;;;;;;;;;0.80;99.90;;;;;;5150219;27;19911;-92
2023/12/16 20:21:18;;;;;;;;;;;0.80;99.90;;;;;;5115531;28;19918;-92
2023/12/16 20:43:36;;;;;;;;;;;1.00;99.90;;;;;;5073818;28;19912;-96
2023/12/16 20:46:02;;;;;;;;;;;1.00;99.90;;;;;;5072157;28;20019;-95
2023/12/16 20:48:28;;;;;;;;;;;1.10;99.90;;;;;;5072117;28;19916;-94
2023/12/16 20:50:53;;;;;;;;;;;1.10;99.90;;;;;;5071347;28;19908;-95
2023/12/16 20:53:19;;;;;;;;;;;1.20;99.90;;;;;;5071585;28;19955;-95
2023/12/16 20:55:45;;;;;;;;;;;1.30;99.90;;;;;;5072526;28;19909;-94
2023/12/16 20:58:10;;;;;;;;;;;1.40;99.90;;;;;;5070387;28;19909;-94
2023/12/16 21:00:36;;;;;;;;;;;1.40;99.90;;;;;;5070684;28;20361;-93
2023/12/16 21:03:02;;;;;;;;;;;1.50;99.90;;;;;;5070225;28;19959;-93
2023/12/16 21:05:27;;;;;;;;;;;1.60;99.90;;;;;;5070150;28;19942;-93
2023/12/16 21:07:53;;;;;;;;;;;1.60;99.90;;;;;;5077881;28;20393;-93
2023/12/16 21:10:18;;;;;;;;;;;1.70;99.90;;;;;;5068680;28;20387;-95
2023/12/16 21:12:44;;;;;;;;;;;1.70;99.90;;;;;;5070295;28;19912;-96
2023/12/16 21:15:09;;;;;;;;;;;1.80;99.90;;;;;;5070291;28;19909;-93
2023/12/16 21:17:35;;;;;;;;;;;1.80;99.90;;;;;;5071373;28;19913;-93
2023/12/16 21:20:01;;;;;;;;;;;1.80;99.90;;;;;;5072553;28;19931;-93
2023/12/16 21:22:27;;;;;;;;;;;1.90;99.90;;;;;;5078327;28;19920;-93
2023/12/16 21:24:52;;;;;;;;;;;1.90;99.90;;;;;;5081436;28;19909;-93
2023/12/16 21:27:18;;;;;;;;;;;1.90;99.90;;;;;;5070192;28;20365;-94
2023/12/16 21:29:44;;;;;;;;;;;1.90;99.90;;;;;;5069778;28;19909;-95
2023/12/16 21:32:10;;;;;;;;;;;2.00;99.90;;;;;;5069632;28;20004;-94
2023/12/16 21:34:36;;;;;;;;;;;2.00;99.90;;;;;;5069475;28;19944;-94
2023/12/16 21:37:02;;;;;;;;;;;2.00;99.90;;;;;;5069357;28;20369;-95
2023/12/16 21:39:28;;;;;;;;;;;2.00;99.90;;;;;;5069388;28;19958;-93
2023/12/16 21:41:54;;;;;;;;;;;2.10;99.90;;;;;;5069162;28;19932;-94
2023/12/16 21:44:19;;;;;;;;;;;2.10;99.90;;;;;;5069313;28;19909;-94
